sensor_id;sensor_type;location;lat;lon;timestamp;pressure;altitude;pressure_sealevel;temperature;humidity
67499;BME280;54345;42.670;23.218;2022-11-20T00:01:21;91799.28;;;16.01;100.00
67499;BME280;54345;42.670;23.218;2022-11-20T00:03:47;91784.97;;;16.03;100.00
67499;BME280;54345;42.670;23.218;2022-11-20T00:06:16;91783.13;;;16.05;100.00
67499;BME280;54345;42.670;23.218;2022-11-20T00:08:43;91803.78;;;16.06;100.00
67499;BME280;54345;42.670;23.218;2022-11-20T00:11:11;91779.69;;;16.14;100.00
67499;BME280;54345;42.670;23.218;2022-11-20T00:13:37;91783.31;;;16.17;100.00
67499;BME280;54345;42.670;23.218;2022-11-20T00:16:05;91776.09;;;16.21;100.00
67499;BME280;54345;42.670;23.218;2022-11-20T00:18:32;91779.38;;;16.10;100.00
67499;BME280;54345;42.670;23.218;2022-11-20T00:23:28;91776.25;;;16.23;100.00
67499;BME280;54345;42.670;23.218;2022-11-20T00:25:53;91789.81;;;16.21;100.00
67499;BME280;54345;42.670;23.218;2022-11-20T00:28:19;91779.56;;;16.22;100.00
67499;BME280;54345;42.670;23.218;2022-11-20T00:30:44;91752.63;;;16.11;100.00
67499;BME280;54345;42.670;23.218;2022-11-20T00:33:10;91795.44;;;16.14;100.00
67499;BME280;54345;42.670;23.218;2022-11-20T00:35:35;91796.53;;;16.01;100.00
67499;BME280;54345;42.670;23.218;2022-11-20T00:38:01;91795.25;;;16.02;100.00
67499;BME280;54345;42.670;23.218;2022-11-20T00:40:26;91800.88;;;16.04;100.00
67499;BME280;54345;42.670;23.218;2022-11-20T00:42:52;91812.81;;;16.16;100.00
67499;BME280;54345;42.670;23.218;2022-11-20T00:45:17;91806.38;;;16.04;100.00
67499;BME280;54345;42.670;23.218;2022-11-20T00:47:43;91826.22;;;16.12;100.00
67499;BME280;54345;42.670;23.218;2022-11-20T00:50:08;91801.31;;;16.01;100.00
67499;BME280;54345;42.670;23.218;2022-11-20T00:52:34;91815.56;;;15.90;100.00
67499;BME280;54345;42.670;23.218;2022-11-20T00:54:59;91824.56;;;16.00;100.00
67499;BME280;54345;42.670;23.218;2022-11-20T00:57:25;91820.53;;;16.01;100.00
67499;BME280;54345;42.670;23.218;2022-11-20T00:59:51;91820.94;;;15.97;100.00
67499;BME280;54345;42.670;23.218;2022-11-20T01:02:16;91812.97;;;15.92;100.00
67499;BME280;54345;42.670;23.218;2022-11-20T01:04:42;91828.88;;;15.93;100.00
67499;BME280;54345;42.670;23.218;2022-11-20T01:07:07;91822.13;;;15.77;100.00
67499;BME280;54345;42.670;23.218;2022-11-20T01:09:33;91813.72;;;15.75;100.00
67499;BME280;54345;42.670;23.218;2022-11-20T01:11:59;91816.47;;;15.75;100.00
67499;BME280;54345;42.670;23.218;2022-11-20T01:14:25;91810.97;;;15.75;100.00
67499;BME280;54345;42.670;23.218;2022-11-20T01:16:52;91792.91;;;15.72;100.00
67499;BME280;54345;42.670;23.218;2022-11-20T01:19:20;91780.34;;;15.96;100.00
67499;BME280;54345;42.670;23.218;2022-11-20T01:21:48;91760.44;;;15.78;100.00
67499;BME280;54345;42.670;23.218;2022-11-20T01:24:16;91774.84;;;15.96;100.00
67499;BME280;54345;42.670;23.218;2022-11-20T01:26:44;91761.25;;;15.98;100.00
67499;BME280;54345;42.670;23.218;2022-11-20T01:29:23;91754.66;;;16.10;100.00
67499;BME280;54345;42.670;23.218;2022-11-20T01:31:49;91757.13;;;16.16;100.00
67499;BME280;54345;42.670;23.218;2022-11-20T01:34:18;91741.25;;;16.14;100.00
67499;BME280;54345;42.670;23.218;2022-11-20T01:36:44;91747.28;;;16.13;100.00
67499;BME280;54345;42.670;23.218;2022-11-20T01:39:16;91715.50;;;16.10;100.00
67499;BME280;54345;42.670;23.218;2022-11-20T01:41:43;91743.78;;;16.03;100.00
67499;BME280;54345;42.670;23.218;2022-11-20T01:44:56;91746.78;;;15.97;100.00
67499;BME280;54345;42.670;23.218;2022-11-20T01:50:14;91753.09;;;16.17;100.00
67499;BME280;54345;42.670;23.218;2022-11-20T01:52:50;91756.38;;;16.06;100.00
67499;BME280;54345;42.670;23.218;2022-11-20T01:55:23;91760.59;;;16.07;100.00
67499;BME280;54345;42.670;23.218;2022-11-20T01:57:51;91757.00;;;15.87;100.00
67499;BME280;54345;42.670;23.218;2022-11-20T02:00:18;91767.06;;;16.02;100.00
67499;BME280;54345;42.670;23.218;2022-11-20T02:02:51;91766.00;;;15.97;100.00
67499;BME280;54345;42.670;23.218;2022-11-20T02:05:46;91764.88;;;16.00;100.00
67499;BME280;54345;42.670;23.218;2022-11-20T02:08:13;91771.09;;;16.01;100.00
67499;BME280;54345;42.670;23.218;2022-11-20T02:10:39;91763.53;;;15.92;100.00
67499;BME280;54345;42.670;23.218;2022-11-20T02:13:05;91767.63;;;16.00;100.00
67499;BME280;54345;42.670;23.218;2022-11-20T02:15:49;91774.41;;;15.99;100.00
67499;BME280;54345;42.670;23.218;2022-11-20T02:18:16;91787.69;;;15.93;100.00
67499;BME280;54345;42.670;23.218;2022-11-20T02:20:45;91773.38;;;15.95;100.00
67499;BME280;54345;42.670;23.218;2022-11-20T02:23:19;91780.47;;;15.98;100.00
67499;BME280;54345;42.670;23.218;2022-11-20T02:25:47;91793.88;;;15.94;100.00
67499;BME280;54345;42.670;23.218;2022-11-20T02:28:13;91782.59;;;15.90;100.00
67499;BME280;54345;42.670;23.218;2022-11-20T02:30:38;91774.66;;;15.94;100.00
67499;BME280;54345;42.670;23.218;2022-11-20T02:33:04;91772.66;;;15.94;100.00
67499;BME280;54345;42.670;23.218;2022-11-20T02:37:59;91787.31;;;16.06;100.00
67499;BME280;54345;42.670;23.218;2022-11-20T02:40:26;91803.50;;;16.02;100.00
67499;BME280;54345;42.670;23.218;2022-11-20T02:42:52;91798.81;;;15.95;100.00
67499;BME280;54345;42.670;23.218;2022-11-20T02:45:18;91794.63;;;15.94;100.00
67499;BME280;54345;42.670;23.218;2022-11-20T02:47:44;91809.66;;;15.93;100.00
